YXTE weather

Tenterfield - Federation Park Heliport
Tenterfield, New South Wales, Australia

Public forecast

Using degrees Celsius for public forecast. Weather courtesy of forecast.io.

METAR (pilot weather report)

Closest report is Casino Airport, 56.1 nm (103.8 km) E. Retrieved 2019/02/16 13:00 UTC (41 minutes ago):

YCAS 161300Z AUTO 00000KT //// // ////// 17/14 Q1017

TAF (pilot weather forecast)

Closest forecast is RAAF Base Amberley, 92.1 nm (170.7 km) NNE. Retrieved 2019/02/16 12:00 UTC (2 hours ago):

TAF YAMB 161050Z 1612/1706 13007KT CAVOK FM161500 VRB05KT 9999 SCT040 FM162300 13010KT 9999 SCT045 FM170200 11013KT 9999 FEW045